sensor_id;sensor_type;location;lat;lon;timestamp;P1;durP1;ratioP1;P2;durP2;ratioP2
16973;SDS011;8603;46.944;7.412;2022-11-18T00:02:16;0.60;;;0.60;;
16973;SDS011;8603;46.944;7.412;2022-11-18T00:04:42;1.60;;;0.73;;
16973;SDS011;8603;46.944;7.412;2022-11-18T00:07:13;1.13;;;0.70;;
16973;SDS011;8603;46.944;7.412;2022-11-18T00:09:56;2.30;;;0.80;;
16973;SDS011;8603;46.944;7.412;2022-11-18T00:12:25;1.03;;;0.80;;
16973;SDS011;8603;46.944;7.412;2022-11-18T00:15:11;1.53;;;1.00;;
16973;SDS011;8603;46.944;7.412;2022-11-18T00:17:43;0.80;;;0.80;;
16973;SDS011;8603;46.944;7.412;2022-11-18T00:20:14;0.80;;;0.80;;
16973;SDS011;8603;46.944;7.412;2022-11-18T00:22:40;1.30;;;0.97;;
16973;SDS011;8603;46.944;7.412;2022-11-18T00:25:06;1.90;;;0.80;;
16973;SDS011;8603;46.944;7.412;2022-11-18T00:27:32;0.97;;;0.80;;
16973;SDS011;8603;46.944;7.412;2022-11-18T00:29:57;0.80;;;0.80;;
16973;SDS011;8603;46.944;7.412;2022-11-18T00:32:23;0.60;;;0.60;;
16973;SDS011;8603;46.944;7.412;2022-11-18T00:34:48;0.60;;;0.60;;
16973;SDS011;8603;46.944;7.412;2022-11-18T00:37:14;0.47;;;0.47;;
16973;SDS011;8603;46.944;7.412;2022-11-18T00:39:39;0.67;;;0.60;;
16973;SDS011;8603;46.944;7.412;2022-11-18T00:42:05;2.20;;;0.77;;
16973;SDS011;8603;46.944;7.412;2022-11-18T00:44:49;0.67;;;0.67;;
16973;SDS011;8603;46.944;7.412;2022-11-18T00:47:14;0.67;;;0.67;;
16973;SDS011;8603;46.944;7.412;2022-11-18T00:49:40;0.70;;;0.70;;
16973;SDS011;8603;46.944;7.412;2022-11-18T00:52:06;0.70;;;0.70;;
16973;SDS011;8603;46.944;7.412;2022-11-18T00:54:31;1.37;;;0.70;;
16973;SDS011;8603;46.944;7.412;2022-11-18T00:56:57;0.83;;;0.60;;
16973;SDS011;8603;46.944;7.412;2022-11-18T00:59:23;0.60;;;0.57;;
16973;SDS011;8603;46.944;7.412;2022-11-18T01:01:48;1.07;;;0.70;;
16973;SDS011;8603;46.944;7.412;2022-11-18T01:04:14;0.60;;;0.60;;
16973;SDS011;8603;46.944;7.412;2022-11-18T01:06:40;0.77;;;0.70;;
16973;SDS011;8603;46.944;7.412;2022-11-18T01:09:06;0.60;;;0.60;;
16973;SDS011;8603;46.944;7.412;2022-11-18T01:11:31;1.03;;;0.80;;
16973;SDS011;8603;46.944;7.412;2022-11-18T01:14:15;0.67;;;0.67;;
16973;SDS011;8603;46.944;7.412;2022-11-18T01:16:41;0.53;;;0.53;;
16973;SDS011;8603;46.944;7.412;2022-11-18T01:19:07;0.60;;;0.60;;
16973;SDS011;8603;46.944;7.412;2022-11-18T01:21:32;0.70;;;0.70;;
16973;SDS011;8603;46.944;7.412;2022-11-18T01:23:58;0.50;;;0.50;;
16973;SDS011;8603;46.944;7.412;2022-11-18T01:26:23;0.60;;;0.60;;
16973;SDS011;8603;46.944;7.412;2022-11-18T01:28:49;0.57;;;0.57;;
16973;SDS011;8603;46.944;7.412;2022-11-18T01:31:18;0.60;;;0.60;;
16973;SDS011;8603;46.944;7.412;2022-11-18T01:33:44;1.10;;;0.57;;
16973;SDS011;8603;46.944;7.412;2022-11-18T01:36:21;0.67;;;0.67;;
16973;SDS011;8603;46.944;7.412;2022-11-18T01:38:48;0.60;;;0.60;;
16973;SDS011;8603;46.944;7.412;2022-11-18T01:41:15;0.60;;;0.60;;
16973;SDS011;8603;46.944;7.412;2022-11-18T01:46:28;0.60;;;0.60;;
16973;SDS011;8603;46.944;7.412;2022-11-18T01:48:58;0.80;;;0.77;;
16973;SDS011;8603;46.944;7.412;2022-11-18T01:51:33;0.60;;;0.60;;
16973;SDS011;8603;46.944;7.412;2022-11-18T01:54:07;0.63;;;0.63;;
16973;SDS011;8603;46.944;7.412;2022-11-18T01:56:41;0.80;;;0.80;;
16973;SDS011;8603;46.944;7.412;2022-11-18T01:59:19;0.80;;;0.80;;
16973;SDS011;8603;46.944;7.412;2022-11-18T02:01:50;0.93;;;0.70;;
16973;SDS011;8603;46.944;7.412;2022-11-18T02:04:16;0.80;;;0.80;;
16973;SDS011;8603;46.944;7.412;2022-11-18T02:06:42;1.33;;;1.00;;
16973;SDS011;8603;46.944;7.412;2022-11-18T02:09:09;1.30;;;0.87;;
16973;SDS011;8603;46.944;7.412;2022-11-18T02:11:37;0.70;;;0.70;;
16973;SDS011;8603;46.944;7.412;2022-11-18T02:14:15;1.37;;;0.80;;
16973;SDS011;8603;46.944;7.412;2022-11-18T02:19:40;0.70;;;0.70;;
16973;SDS011;8603;46.944;7.412;2022-11-18T02:36:08;0.90;;;0.90;;
16973;SDS011;8603;46.944;7.412;2022-11-18T02:38:41;1.47;;;0.80;;
16973;SDS011;8603;46.944;7.412;2022-11-18T02:41:12;0.70;;;0.70;;
16973;SDS011;8603;46.944;7.412;2022-11-18T02:43:51;0.80;;;0.80;;
16973;SDS011;8603;46.944;7.412;2022-11-18T02:46:20;0.90;;;0.90;;
16973;SDS011;8603;46.944;7.412;2022-11-18T02:48:57;0.80;;;0.80;;
16973;SDS011;8603;46.944;7.412;2022-11-18T02:51:25;0.60;;;0.60;;
16973;SDS011;8603;46.944;7.412;2022-11-18T02:53:54;1.00;;;0.90;;
16973;SDS011;8603;46.944;7.412;2022-11-18T02:56:22;0.80;;;0.80;;
16973;SDS011;8603;46.944;7.412;2022-11-18T02:58:49;0.77;;;0.70;;
16973;SDS011;8603;46.944;7.412;2022-11-18T03:01:15;0.93;;;0.50;;
16973;SDS011;8603;46.944;7.412;2022-11-18T03:03:51;0.83;;;0.70;;
16973;SDS011;8603;46.944;7.412;2022-11-18T03:06:33;1.37;;;0.70;;
16973;SDS011;8603;46.944;7.412;2022-11-18T03:11:38;0.70;;;0.70;;
16973;SDS011;8603;46.944;7.412;2022-11-18T03:14:15;0.97;;;0.80;;
16973;SDS011;8603;46.944;7.412;2022-11-18T03:22:37;0.70;;;0.70;;
16973;SDS011;8603;46.944;7.412;2022-11-18T03:25:28;0.70;;;0.70;;
16973;SDS011;8603;46.944;7.412;2022-11-18T03:28:17;0.63;;;0.63;;
16973;SDS011;8603;46.944;7.412;2022-11-18T03:31:11;0.93;;;0.70;;
16973;SDS011;8603;46.944;7.412;2022-11-18T03:34:44;0.60;;;0.60;;
16973;SDS011;8603;46.944;7.412;2022-11-18T03:37:00;0.60;;;0.60;;
16973;SDS011;8603;46.944;7.412;2022-11-18T03:39:30;0.50;;;0.50;;
16973;SDS011;8603;46.944;7.412;2022-11-18T03:42:10;0.70;;;0.70;;
16973;SDS011;8603;46.944;7.412;2022-11-18T03:44:51;0.80;;;0.80;;
16973;SDS011;8603;46.944;7.412;2022-11-18T03:47:28;1.23;;;1.13;;
16973;SDS011;8603;46.944;7.412;2022-11-18T03:50:07;0.97;;;0.70;;
16973;SDS011;8603;46.944;7.412;2022-11-18T03:52:39;1.07;;;0.60;;
16973;SDS011;8603;46.944;7.412;2022-11-18T03:55:10;0.70;;;0.70;;
16973;SDS011;8603;46.944;7.412;2022-11-18T03:57:45;0.73;;;0.73;;
16973;SDS011;8603;46.944;7.412;2022-11-18T04:00:16;0.90;;;0.80;;
16973;SDS011;8603;46.944;7.412;2022-11-18T04:02:44;0.60;;;0.60;;
16973;SDS011;8603;46.944;7.412;2022-11-18T04:05:12;0.97;;;0.77;;
16973;SDS011;8603;46.944;7.412;2022-11-18T04:07:42;0.60;;;0.60;;
16973;SDS011;8603;46.944;7.412;2022-11-18T04:10:30;0.50;;;0.50;;
16973;SDS011;8603;46.944;7.412;2022-11-18T04:13:01;0.60;;;0.60;;
16973;SDS011;8603;46.944;7.412;2022-11-18T04:15:36;0.67;;;0.67;;
16973;SDS011;8603;46.944;7.412;2022-11-18T04:18:02;0.70;;;0.70;;
16973;SDS011;8603;46.944;7.412;2022-11-18T04:20:28;0.80;;;0.80;;
16973;SDS011;8603;46.944;7.412;2022-11-18T04:22:55;0.60;;;0.60;;
16973;SDS011;8603;46.944;7.412;2022-11-18T04:25:21;0.63;;;0.63;;
16973;SDS011;8603;46.944;7.412;2022-11-18T04:27:48;0.93;;;0.67;;
16973;SDS011;8603;46.944;7.412;2022-11-18T04:30:14;0.57;;;0.53;;
16973;SDS011;8603;46.944;7.412;2022-11-18T04:32:39;0.73;;;0.70;;
16973;SDS011;8603;46.944;7.412;2022-11-18T04:35:05;1.27;;;0.60;;
16973;SDS011;8603;46.944;7.412;2022-11-18T04:37:31;0.60;;;0.60;;
16973;SDS011;8603;46.944;7.412;2022-11-18T04:39:56;0.60;;;0.60;;
16973;SDS011;8603;46.944;7.412;2022-11-18T04:42:22;0.60;;;0.60;;
16973;SDS011;8603;46.944;7.412;2022-11-18T04:44:47;1.23;;;0.60;;
16973;SDS011;8603;46.944;7.412;2022-11-18T04:47:13;1.63;;;0.77;;
16973;SDS011;8603;46.944;7.412;2022-11-18T04:49:38;0.87;;;0.60;;
16973;SDS011;8603;46.944;7.412;2022-11-18T04:52:04;2.30;;;0.60;;
16973;SDS011;8603;46.944;7.412;2022-11-18T04:54:30;0.60;;;0.60;;
16973;SDS011;8603;46.944;7.412;2022-11-18T04:56:56;1.17;;;0.70;;
16973;SDS011;8603;46.944;7.412;2022-11-18T04:59:25;0.67;;;0.67;;
16973;SDS011;8603;46.944;7.412;2022-11-18T05:01:53;0.73;;;0.60;;
16973;SDS011;8603;46.944;7.412;2022-11-18T05:04:20;0.60;;;0.60;;
16973;SDS011;8603;46.944;7.412;2022-11-18T05:06:48;3.27;;;0.70;;
16973;SDS011;8603;46.944;7.412;2022-11-18T05:09:14;0.70;;;0.70;;
16973;SDS011;8603;46.944;7.412;2022-11-18T05:11:40;0.60;;;0.60;;
16973;SDS011;8603;46.944;7.412;2022-11-18T05:14:25;0.60;;;0.60;;
16973;SDS011;8603;46.944;7.412;2022-11-18T05:16:51;0.90;;;0.80;;
16973;SDS011;8603;46.944;7.412;2022-11-18T05:19:18;0.77;;;0.73;;
16973;SDS011;8603;46.944;7.412;2022-11-18T05:21:43;2.97;;;1.00;;
16973;SDS011;8603;46.944;7.412;2022-11-18T05:24:09;2.00;;;1.10;;
16973;SDS011;8603;46.944;7.412;2022-11-18T05:26:35;0.70;;;0.70;;
16973;SDS011;8603;46.944;7.412;2022-11-18T05:29:00;0.90;;;0.60;;
16973;SDS011;8603;46.944;7.412;2022-11-18T05:31:26;1.90;;;1.60;;
16973;SDS011;8603;46.944;7.412;2022-11-18T05:33:52;1.20;;;1.10;;
16973;SDS011;8603;46.944;7.412;2022-11-18T05:36:18;0.87;;;0.70;;
16973;SDS011;8603;46.944;7.412;2022-11-18T05:38:44;0.63;;;0.63;;
16973;SDS011;8603;46.944;7.412;2022-11-18T05:41:10;0.80;;;0.80;;
16973;SDS011;8603;46.944;7.412;2022-11-18T05:44:00;0.90;;;0.87;;
16973;SDS011;8603;46.944;7.412;2022-11-18T05:46:26;2.37;;;0.77;;
16973;SDS011;8603;46.944;7.412;2022-11-18T05:48:52;0.53;;;0.53;;
16973;SDS011;8603;46.944;7.412;2022-11-18T05:51:17;0.70;;;0.70;;
16973;SDS011;8603;46.944;7.412;2022-11-18T05:53:43;0.73;;;0.70;;
16973;SDS011;8603;46.944;7.412;2022-11-18T05:56:18;1.10;;;1.00;;
16973;SDS011;8603;46.944;7.412;2022-11-18T05:58:57;0.60;;;0.60;;
16973;SDS011;8603;46.944;7.412;2022-11-18T06:02:05;1.67;;;0.70;;
16973;SDS011;8603;46.944;7.412;2022-11-18T06:04:25;0.60;;;0.60;;
16973;SDS011;8603;46.944;7.412;2022-11-18T06:06:53;1.77;;;0.70;;
16973;SDS011;8603;46.944;7.412;2022-11-18T06:09:27;0.80;;;0.80;;
16973;SDS011;8603;46.944;7.412;2022-11-18T06:11:56;1.00;;;0.90;;
16973;SDS011;8603;46.944;7.412;2022-11-18T06:16:57;0.73;;;0.73;;
16973;SDS011;8603;46.944;7.412;2022-11-18T06:19:26;1.00;;;1.00;;
16973;SDS011;8603;46.944;7.412;2022-11-18T06:21:51;1.90;;;0.90;;
16973;SDS011;8603;46.944;7.412;2022-11-18T06:24:18;1.10;;;1.00;;
16973;SDS011;8603;46.944;7.412;2022-11-18T06:26:43;0.80;;;0.80;;
16973;SDS011;8603;46.944;7.412;2022-11-18T06:29:10;1.47;;;1.10;;
16973;SDS011;8603;46.944;7.412;2022-11-18T06:31:38;2.83;;;1.20;;
16973;SDS011;8603;46.944;7.412;2022-11-18T06:34:04;1.03;;;0.60;;
16973;SDS011;8603;46.944;7.412;2022-11-18T06:36:29;1.07;;;0.77;;
16973;SDS011;8603;46.944;7.412;2022-11-18T06:38:55;0.83;;;0.80;;
16973;SDS011;8603;46.944;7.412;2022-11-18T06:41:20;0.90;;;0.90;;
16973;SDS011;8603;46.944;7.412;2022-11-18T06:43:46;1.37;;;0.90;;
16973;SDS011;8603;46.944;7.412;2022-11-18T06:46:13;1.70;;;0.77;;
16973;SDS011;8603;46.944;7.412;2022-11-18T06:48:59;0.80;;;0.80;;
16973;SDS011;8603;46.944;7.412;2022-11-18T06:51:26;2.60;;;0.90;;
16973;SDS011;8603;46.944;7.412;2022-11-18T06:53:52;0.80;;;0.80;;
16973;SDS011;8603;46.944;7.412;2022-11-18T06:56:18;0.70;;;0.70;;
16973;SDS011;8603;46.944;7.412;2022-11-18T06:58:45;1.53;;;1.00;;
16973;SDS011;8603;46.944;7.412;2022-11-18T07:01:15;2.23;;;0.80;;
16973;SDS011;8603;46.944;7.412;2022-11-18T07:03:43;0.97;;;0.80;;
16973;SDS011;8603;46.944;7.412;2022-11-18T07:06:10;0.60;;;0.60;;
16973;SDS011;8603;46.944;7.412;2022-11-18T07:08:37;1.00;;;0.90;;
16973;SDS011;8603;46.944;7.412;2022-11-18T07:11:05;0.67;;;0.67;;
16973;SDS011;8603;46.944;7.412;2022-11-18T07:13:32;1.43;;;0.60;;
16973;SDS011;8603;46.944;7.412;2022-11-18T07:16:05;1.10;;;0.80;;
16973;SDS011;8603;46.944;7.412;2022-11-18T07:18:44;0.80;;;0.80;;
16973;SDS011;8603;46.944;7.412;2022-11-18T07:21:14;1.67;;;0.70;;
16973;SDS011;8603;46.944;7.412;2022-11-18T07:23:42;0.67;;;0.57;;
16973;SDS011;8603;46.944;7.412;2022-11-18T07:26:07;1.73;;;0.70;;
16973;SDS011;8603;46.944;7.412;2022-11-18T07:28:33;2.37;;;0.90;;
16973;SDS011;8603;46.944;7.412;2022-11-18T07:31:09;1.57;;;0.70;;
16973;SDS011;8603;46.944;7.412;2022-11-18T07:33:40;0.83;;;0.83;;
16973;SDS011;8603;46.944;7.412;2022-11-18T07:36:10;0.83;;;0.80;;
16973;SDS011;8603;46.944;7.412;2022-11-18T07:38:37;3.30;;;0.90;;
16973;SDS011;8603;46.944;7.412;2022-11-18T07:41:08;0.80;;;0.60;;
16973;SDS011;8603;46.944;7.412;2022-11-18T07:43:40;0.90;;;0.90;;
16973;SDS011;8603;46.944;7.412;2022-11-18T07:46:08;0.60;;;0.60;;
16973;SDS011;8603;46.944;7.412;2022-11-18T07:48:35;1.20;;;0.77;;
16973;SDS011;8603;46.944;7.412;2022-11-18T07:51:01;1.47;;;0.90;;
16973;SDS011;8603;46.944;7.412;2022-11-18T07:53:28;1.40;;;0.80;;
16973;SDS011;8603;46.944;7.412;2022-11-18T07:55:55;1.83;;;0.90;;
16973;SDS011;8603;46.944;7.412;2022-11-18T07:58:22;0.97;;;0.80;;
16973;SDS011;8603;46.944;7.412;2022-11-18T08:00:47;1.23;;;0.80;;
16973;SDS011;8603;46.944;7.412;2022-11-18T08:03:13;0.80;;;0.80;;
16973;SDS011;8603;46.944;7.412;2022-11-18T08:05:39;1.23;;;0.80;;
16973;SDS011;8603;46.944;7.412;2022-11-18T08:08:04;1.00;;;0.73;;
16973;SDS011;8603;46.944;7.412;2022-11-18T08:10:30;0.70;;;0.70;;
16973;SDS011;8603;46.944;7.412;2022-11-18T08:12:55;0.70;;;0.70;;
16973;SDS011;8603;46.944;7.412;2022-11-18T08:15:21;1.00;;;0.83;;
16973;SDS011;8603;46.944;7.412;2022-11-18T08:17:47;0.70;;;0.70;;
16973;SDS011;8603;46.944;7.412;2022-11-18T08:20:13;2.30;;;1.40;;
16973;SDS011;8603;46.944;7.412;2022-11-18T08:22:39;1.00;;;0.67;;
16973;SDS011;8603;46.944;7.412;2022-11-18T08:25:05;0.80;;;0.80;;
16973;SDS011;8603;46.944;7.412;2022-11-18T08:27:31;0.70;;;0.70;;
16973;SDS011;8603;46.944;7.412;2022-11-18T08:29:57;1.17;;;0.60;;
16973;SDS011;8603;46.944;7.412;2022-11-18T08:32:22;0.73;;;0.73;;
16973;SDS011;8603;46.944;7.412;2022-11-18T08:34:49;0.97;;;0.80;;
16973;SDS011;8603;46.944;7.412;2022-11-18T08:37:15;1.20;;;0.80;;
16973;SDS011;8603;46.944;7.412;2022-11-18T08:39:41;0.70;;;0.70;;
16973;SDS011;8603;46.944;7.412;2022-11-18T08:42:07;1.43;;;0.90;;
16973;SDS011;8603;46.944;7.412;2022-11-18T08:44:34;0.77;;;0.77;;
16973;SDS011;8603;46.944;7.412;2022-11-18T08:47:00;0.70;;;0.70;;
16973;SDS011;8603;46.944;7.412;2022-11-18T08:49:25;0.97;;;0.90;;
16973;SDS011;8603;46.944;7.412;2022-11-18T08:51:51;0.77;;;0.77;;
16973;SDS011;8603;46.944;7.412;2022-11-18T08:54:17;1.50;;;0.90;;
16973;SDS011;8603;46.944;7.412;2022-11-18T08:56:42;1.83;;;0.90;;
16973;SDS011;8603;46.944;7.412;2022-11-18T08:59:08;1.00;;;0.80;;
16973;SDS011;8603;46.944;7.412;2022-11-18T09:01:37;1.27;;;0.60;;
16973;SDS011;8603;46.944;7.412;2022-11-18T09:04:05;1.27;;;0.63;;
16973;SDS011;8603;46.944;7.412;2022-11-18T09:06:31;1.87;;;0.77;;
16973;SDS011;8603;46.944;7.412;2022-11-18T09:08:58;1.00;;;1.00;;
16973;SDS011;8603;46.944;7.412;2022-11-18T09:11:25;1.13;;;1.03;;
16973;SDS011;8603;46.944;7.412;2022-11-18T09:13:52;0.93;;;0.90;;
16973;SDS011;8603;46.944;7.412;2022-11-18T09:16:20;2.17;;;1.67;;
16973;SDS011;8603;46.944;7.412;2022-11-18T09:18:47;1.10;;;1.10;;
16973;SDS011;8603;46.944;7.412;2022-11-18T09:21:14;1.90;;;1.70;;
16973;SDS011;8603;46.944;7.412;2022-11-18T09:23:40;1.50;;;1.40;;
16973;SDS011;8603;46.944;7.412;2022-11-18T09:26:10;2.07;;;1.70;;
16973;SDS011;8603;46.944;7.412;2022-11-18T09:28:37;1.60;;;1.00;;
16973;SDS011;8603;46.944;7.412;2022-11-18T09:31:07;1.50;;;0.93;;
16973;SDS011;8603;46.944;7.412;2022-11-18T09:33:35;1.10;;;1.00;;
16973;SDS011;8603;46.944;7.412;2022-11-18T09:36:01;1.57;;;0.90;;
16973;SDS011;8603;46.944;7.412;2022-11-18T09:38:28;1.03;;;0.90;;
16973;SDS011;8603;46.944;7.412;2022-11-18T09:43:36;4.87;;;2.83;;
16973;SDS011;8603;46.944;7.412;2022-11-18T09:46:30;3.23;;;2.13;;
16973;SDS011;8603;46.944;7.412;2022-11-18T09:49:09;2.10;;;1.60;;
16973;SDS011;8603;46.944;7.412;2022-11-18T09:51:49;4.10;;;2.83;;
16973;SDS011;8603;46.944;7.412;2022-11-18T09:57:01;2.17;;;1.40;;
16973;SDS011;8603;46.944;7.412;2022-11-18T09:59:33;1.20;;;1.10;;
16973;SDS011;8603;46.944;7.412;2022-11-18T10:02:10;0.97;;;0.97;;
16973;SDS011;8603;46.944;7.412;2022-11-18T10:05:06;1.40;;;0.80;;
16973;SDS011;8603;46.944;7.412;2022-11-18T10:23:20;0.93;;;0.80;;
16973;SDS011;8603;46.944;7.412;2022-11-18T10:25:51;0.70;;;0.70;;
16973;SDS011;8603;46.944;7.412;2022-11-18T10:30:50;2.10;;;0.90;;
16973;SDS011;8603;46.944;7.412;2022-11-18T10:33:26;1.00;;;0.50;;
16973;SDS011;8603;46.944;7.412;2022-11-18T10:38:35;0.70;;;0.70;;
16973;SDS011;8603;46.944;7.412;2022-11-18T10:41:02;1.17;;;0.80;;
16973;SDS011;8603;46.944;7.412;2022-11-18T10:43:45;0.97;;;0.97;;
16973;SDS011;8603;46.944;7.412;2022-11-18T10:46:29;1.07;;;0.90;;
16973;SDS011;8603;46.944;7.412;2022-11-18T10:51:39;0.80;;;0.80;;
16973;SDS011;8603;46.944;7.412;2022-11-18T10:57:03;0.83;;;0.70;;
16973;SDS011;8603;46.944;7.412;2022-11-18T10:59:53;0.80;;;0.80;;
16973;SDS011;8603;46.944;7.412;2022-11-18T11:02:26;1.30;;;0.70;;
16973;SDS011;8603;46.944;7.412;2022-11-18T11:04:55;1.13;;;0.80;;
16973;SDS011;8603;46.944;7.412;2022-11-18T11:07:42;0.80;;;0.80;;
16973;SDS011;8603;46.944;7.412;2022-11-18T11:10:18;0.87;;;0.70;;
16973;SDS011;8603;46.944;7.412;2022-11-18T11:12:58;0.50;;;0.50;;
16973;SDS011;8603;46.944;7.412;2022-11-18T11:18:03;0.60;;;0.60;;
16973;SDS011;8603;46.944;7.412;2022-11-18T11:20:54;2.10;;;0.93;;
16973;SDS011;8603;46.944;7.412;2022-11-18T11:23:22;0.80;;;0.80;;
16973;SDS011;8603;46.944;7.412;2022-11-18T11:25:56;0.83;;;0.80;;
16973;SDS011;8603;46.944;7.412;2022-11-18T11:31:17;1.43;;;1.33;;
16973;SDS011;8603;46.944;7.412;2022-11-18T11:33:52;0.70;;;0.70;;
16973;SDS011;8603;46.944;7.412;2022-11-18T11:41:48;2.33;;;1.10;;
16973;SDS011;8603;46.944;7.412;2022-11-18T11:47:34;0.80;;;0.80;;
16973;SDS011;8603;46.944;7.412;2022-11-18T11:50:55;2.30;;;1.10;;
16973;SDS011;8603;46.944;7.412;2022-11-18T11:56:11;2.93;;;1.13;;
16973;SDS011;8603;46.944;7.412;2022-11-18T11:58:47;2.87;;;1.90;;
16973;SDS011;8603;46.944;7.412;2022-11-18T12:07:11;1.60;;;1.17;;
16973;SDS011;8603;46.944;7.412;2022-11-18T12:12:52;1.23;;;1.10;;
16973;SDS011;8603;46.944;7.412;2022-11-18T12:18:07;1.20;;;1.00;;
16973;SDS011;8603;46.944;7.412;2022-11-18T12:20:43;1.10;;;1.00;;
16973;SDS011;8603;46.944;7.412;2022-11-18T12:28:25;0.90;;;0.90;;
16973;SDS011;8603;46.944;7.412;2022-11-18T12:36:29;2.73;;;0.77;;
16973;SDS011;8603;46.944;7.412;2022-11-18T12:38:57;1.00;;;0.80;;
16973;SDS011;8603;46.944;7.412;2022-11-18T12:44:29;2.63;;;0.90;;
16973;SDS011;8603;46.944;7.412;2022-11-18T12:46:58;2.30;;;1.00;;
16973;SDS011;8603;46.944;7.412;2022-11-18T12:51:53;0.80;;;0.80;;
16973;SDS011;8603;46.944;7.412;2022-11-18T12:54:57;1.90;;;1.10;;
16973;SDS011;8603;46.944;7.412;2022-11-18T12:59:41;1.50;;;0.80;;
16973;SDS011;8603;46.944;7.412;2022-11-18T13:04:36;0.70;;;0.60;;
16973;SDS011;8603;46.944;7.412;2022-11-18T13:07:03;0.70;;;0.70;;
16973;SDS011;8603;46.944;7.412;2022-11-18T13:09:51;4.00;;;1.10;;
16973;SDS011;8603;46.944;7.412;2022-11-18T13:12:17;1.10;;;0.73;;
16973;SDS011;8603;46.944;7.412;2022-11-18T13:14:43;0.80;;;0.80;;
16973;SDS011;8603;46.944;7.412;2022-11-18T13:17:35;1.83;;;1.00;;
16973;SDS011;8603;46.944;7.412;2022-11-18T13:22:50;2.03;;;0.73;;
16973;SDS011;8603;46.944;7.412;2022-11-18T13:25:39;0.67;;;0.67;;
16973;SDS011;8603;46.944;7.412;2022-11-18T13:30:42;4.07;;;2.20;;
16973;SDS011;8603;46.944;7.412;2022-11-18T13:33:20;2.83;;;2.10;;
16973;SDS011;8603;46.944;7.412;2022-11-18T13:35:45;1.50;;;1.40;;
16973;SDS011;8603;46.944;7.412;2022-11-18T13:38:22;1.43;;;1.33;;
16973;SDS011;8603;46.944;7.412;2022-11-18T13:40:49;2.00;;;1.30;;
16973;SDS011;8603;46.944;7.412;2022-11-18T13:43:28;0.80;;;0.80;;
16973;SDS011;8603;46.944;7.412;2022-11-18T13:46:03;1.27;;;0.70;;
16973;SDS011;8603;46.944;7.412;2022-11-18T13:48:33;1.50;;;0.90;;
16973;SDS011;8603;46.944;7.412;2022-11-18T13:51:04;1.50;;;0.90;;
16973;SDS011;8603;46.944;7.412;2022-11-18T13:56:06;1.10;;;0.90;;
16973;SDS011;8603;46.944;7.412;2022-11-18T13:58:40;1.73;;;1.10;;
16973;SDS011;8603;46.944;7.412;2022-11-18T14:01:12;3.03;;;0.80;;
16973;SDS011;8603;46.944;7.412;2022-11-18T14:06:30;2.63;;;0.90;;
16973;SDS011;8603;46.944;7.412;2022-11-18T14:12:00;1.47;;;1.33;;
16973;SDS011;8603;46.944;7.412;2022-11-18T14:14:50;2.03;;;1.33;;
16973;SDS011;8603;46.944;7.412;2022-11-18T14:19:47;1.30;;;1.10;;
16973;SDS011;8603;46.944;7.412;2022-11-18T14:22:21;1.90;;;1.00;;
16973;SDS011;8603;46.944;7.412;2022-11-18T14:27:42;2.67;;;1.00;;
16973;SDS011;8603;46.944;7.412;2022-11-18T14:33:22;2.23;;;0.80;;
16973;SDS011;8603;46.944;7.412;2022-11-18T14:41:08;1.00;;;0.83;;
16973;SDS011;8603;46.944;7.412;2022-11-18T14:43:36;2.57;;;1.20;;
16973;SDS011;8603;46.944;7.412;2022-11-18T14:46:03;3.30;;;1.60;;
16973;SDS011;8603;46.944;7.412;2022-11-18T14:48:31;1.90;;;1.03;;
16973;SDS011;8603;46.944;7.412;2022-11-18T14:50:56;1.73;;;1.30;;
16973;SDS011;8603;46.944;7.412;2022-11-18T14:53:22;1.10;;;1.00;;
16973;SDS011;8603;46.944;7.412;2022-11-18T14:55:50;1.03;;;0.90;;
16973;SDS011;8603;46.944;7.412;2022-11-18T15:00:59;1.27;;;1.00;;
16973;SDS011;8603;46.944;7.412;2022-11-18T15:03:25;1.57;;;1.00;;
16973;SDS011;8603;46.944;7.412;2022-11-18T15:05:50;3.40;;;1.47;;
16973;SDS011;8603;46.944;7.412;2022-11-18T15:08:23;4.57;;;2.23;;
16973;SDS011;8603;46.944;7.412;2022-11-18T15:10:49;2.33;;;2.07;;
16973;SDS011;8603;46.944;7.412;2022-11-18T15:13:17;7.33;;;3.23;;
16973;SDS011;8603;46.944;7.412;2022-11-18T15:15:43;2.83;;;1.67;;
16973;SDS011;8603;46.944;7.412;2022-11-18T15:18:08;4.70;;;2.33;;
16973;SDS011;8603;46.944;7.412;2022-11-18T15:20:36;6.23;;;3.53;;
16973;SDS011;8603;46.944;7.412;2022-11-18T15:23:02;5.53;;;2.70;;
16973;SDS011;8603;46.944;7.412;2022-11-18T15:25:27;7.03;;;2.90;;
16973;SDS011;8603;46.944;7.412;2022-11-18T15:27:53;4.23;;;2.40;;
16973;SDS011;8603;46.944;7.412;2022-11-18T15:30:18;2.80;;;1.80;;
16973;SDS011;8603;46.944;7.412;2022-11-18T15:32:44;4.10;;;2.13;;
16973;SDS011;8603;46.944;7.412;2022-11-18T15:35:10;5.00;;;3.07;;
16973;SDS011;8603;46.944;7.412;2022-11-18T15:37:37;3.30;;;2.40;;
16973;SDS011;8603;46.944;7.412;2022-11-18T15:40:03;2.63;;;1.57;;
16973;SDS011;8603;46.944;7.412;2022-11-18T15:42:29;1.97;;;1.60;;
16973;SDS011;8603;46.944;7.412;2022-11-18T15:44:54;2.97;;;1.40;;
16973;SDS011;8603;46.944;7.412;2022-11-18T15:47:20;1.63;;;1.50;;
16973;SDS011;8603;46.944;7.412;2022-11-18T15:49:45;3.33;;;1.40;;
16973;SDS011;8603;46.944;7.412;2022-11-18T15:52:11;2.00;;;1.23;;
16973;SDS011;8603;46.944;7.412;2022-11-18T15:54:37;2.33;;;1.37;;
16973;SDS011;8603;46.944;7.412;2022-11-18T15:57:03;2.37;;;1.30;;
16973;SDS011;8603;46.944;7.412;2022-11-18T15:59:29;2.83;;;1.17;;
16973;SDS011;8603;46.944;7.412;2022-11-18T16:01:54;1.73;;;0.93;;
16973;SDS011;8603;46.944;7.412;2022-11-18T16:04:21;1.30;;;1.10;;
16973;SDS011;8603;46.944;7.412;2022-11-18T16:06:46;1.23;;;1.00;;
16973;SDS011;8603;46.944;7.412;2022-11-18T16:09:13;1.43;;;1.17;;
16973;SDS011;8603;46.944;7.412;2022-11-18T16:11:40;2.20;;;1.10;;
16973;SDS011;8603;46.944;7.412;2022-11-18T16:14:24;3.80;;;1.90;;
16973;SDS011;8603;46.944;7.412;2022-11-18T16:16:51;3.40;;;2.00;;
16973;SDS011;8603;46.944;7.412;2022-11-18T16:19:19;4.47;;;2.20;;
16973;SDS011;8603;46.944;7.412;2022-11-18T16:21:48;2.67;;;2.13;;
16973;SDS011;8603;46.944;7.412;2022-11-18T16:24:19;3.33;;;1.80;;
16973;SDS011;8603;46.944;7.412;2022-11-18T16:26:46;2.13;;;1.70;;
16973;SDS011;8603;46.944;7.412;2022-11-18T16:29:18;2.20;;;1.60;;
16973;SDS011;8603;46.944;7.412;2022-11-18T16:31:46;4.53;;;1.77;;
16973;SDS011;8603;46.944;7.412;2022-11-18T16:34:17;3.37;;;2.00;;
16973;SDS011;8603;46.944;7.412;2022-11-18T16:36:45;3.97;;;2.83;;
16973;SDS011;8603;46.944;7.412;2022-11-18T16:39:14;2.93;;;2.23;;
16973;SDS011;8603;46.944;7.412;2022-11-18T16:41:41;4.03;;;2.30;;
16973;SDS011;8603;46.944;7.412;2022-11-18T16:44:08;4.37;;;2.10;;
16973;SDS011;8603;46.944;7.412;2022-11-18T16:46:36;5.03;;;2.27;;
16973;SDS011;8603;46.944;7.412;2022-11-18T16:49:04;3.73;;;2.50;;
16973;SDS011;8603;46.944;7.412;2022-11-18T16:51:30;3.23;;;2.40;;
16973;SDS011;8603;46.944;7.412;2022-11-18T16:53:59;5.07;;;3.23;;
16973;SDS011;8603;46.944;7.412;2022-11-18T16:56:30;8.43;;;4.97;;
16973;SDS011;8603;46.944;7.412;2022-11-18T16:58:57;7.50;;;5.50;;
16973;SDS011;8603;46.944;7.412;2022-11-18T17:01:23;7.77;;;4.73;;
16973;SDS011;8603;46.944;7.412;2022-11-18T17:03:50;8.07;;;3.00;;
16973;SDS011;8603;46.944;7.412;2022-11-18T17:06:16;2.90;;;2.00;;
16973;SDS011;8603;46.944;7.412;2022-11-18T17:08:42;7.63;;;2.60;;
16973;SDS011;8603;46.944;7.412;2022-11-18T17:11:09;2.90;;;2.17;;
16973;SDS011;8603;46.944;7.412;2022-11-18T17:13:38;2.87;;;2.20;;
16973;SDS011;8603;46.944;7.412;2022-11-18T17:18:36;3.27;;;2.40;;
16973;SDS011;8603;46.944;7.412;2022-11-18T17:21:06;3.27;;;2.60;;
16973;SDS011;8603;46.944;7.412;2022-11-18T17:23:35;4.00;;;2.77;;
16973;SDS011;8603;46.944;7.412;2022-11-18T17:26:01;3.70;;;2.23;;
16973;SDS011;8603;46.944;7.412;2022-11-18T17:28:31;4.30;;;2.70;;
16973;SDS011;8603;46.944;7.412;2022-11-18T17:31:03;4.67;;;2.60;;
16973;SDS011;8603;46.944;7.412;2022-11-18T17:33:30;4.60;;;2.87;;
16973;SDS011;8603;46.944;7.412;2022-11-18T17:38:30;3.60;;;2.90;;
16973;SDS011;8603;46.944;7.412;2022-11-18T17:40:57;10.03;;;6.30;;
16973;SDS011;8603;46.944;7.412;2022-11-18T17:43:23;19.03;;;13.57;;
16973;SDS011;8603;46.944;7.412;2022-11-18T17:45:53;20.87;;;14.90;;